Time;durP1;ratioP1;P1;durP2;ratioP2;P2;SDS_P1;SDS_P2;PMS_P1;PMS_P2;Temp;Humidity;BMP_temperature;BMP_pressure;BME280_temperature;BME280_humidity;BME280_pressure;Samples;Min_cycle;Max_cycle;Signal;HPM_P1;HPM_P2
2022/03/31 00:00:22;;;;;;;43.83;20.92;;;;;;;5.10;93.92;95633.97;5023377;28;20037;-65
2022/03/31 00:02:49;;;;;;;50.55;22.83;;;;;;;5.22;95.56;95637.25;5024727;28;20088;-65
2022/03/31 00:05:16;;;;;;;45.65;21.48;;;;;;;5.23;93.76;95633.50;5025993;28;20167;-63
2022/03/31 00:07:52;;;;;;;44.80;20.83;;;;;;;5.27;93.82;95629.22;5024660;28;20049;-64
2022/03/31 00:10:29;;;;;;;40.08;20.52;;;;;;;5.30;93.67;95631.38;5025509;28;20804;-64
2022/03/31 00:12:57;;;;;;;38.60;20.10;;;;;;;5.40;93.55;95627.94;5024607;28;20087;-65
2022/03/31 00:15:26;;;;;;;35.53;19.20;;;;;;;5.25;92.84;95626.00;5024846;28;20037;-65
2022/03/31 00:17:54;;;;;;;36.65;19.33;;;;;;;5.19;93.26;95624.34;5024399;28;20041;-65
2022/03/31 00:20:21;;;;;;;38.33;20.88;;;;;;;5.09;94.30;95619.75;5032348;28;20053;-64
2022/03/31 00:22:48;;;;;;;40.28;19.20;;;;;;;5.17;93.78;95623.81;5036805;28;20664;-63
2022/03/31 00:25:14;;;;;;;39.40;19.35;;;;;;;5.24;93.69;95627.06;5024346;28;20034;-62
2022/03/31 00:27:41;;;;;;;43.17;21.23;;;;;;;5.39;94.33;95617.47;5023769;28;20098;-64
2022/03/31 00:30:10;;;;;;;47.20;21.40;;;;;;;5.44;93.62;95609.44;5025659;28;20041;-65
2022/03/31 00:32:38;;;;;;;41.03;20.90;;;;;;;5.45;93.07;95609.19;5023180;28;20048;-63
2022/03/31 00:35:06;;;;;;;40.85;19.15;;;;;;;5.53;92.70;95604.38;5025877;28;20119;-62
2022/03/31 00:37:33;;;;;;;41.15;20.95;;;;;;;5.57;92.61;95600.09;5024580;28;20041;-64
2022/03/31 00:40:00;;;;;;;39.80;20.92;;;;;;;5.53;92.52;95599.00;5024887;28;20044;-63
2022/03/31 00:42:26;;;;;;;46.42;21.17;;;;;;;5.60;92.89;95586.94;5024484;28;20050;-65
2022/03/31 00:44:53;;;;;;;43.95;20.48;;;;;;;5.63;92.27;95587.50;5019757;28;20033;-64
2022/03/31 00:47:20;;;;;;;41.53;21.52;;;;;;;5.64;92.02;95587.22;5022824;28;20041;-64
2022/03/31 00:49:46;;;;;;;41.50;21.67;;;;;;;5.61;92.06;95585.06;5026990;28;20045;-65
2022/03/31 00:52:13;;;;;;;46.50;21.10;;;;;;;5.63;91.95;95582.13;5025836;28;20041;-65
2022/03/31 00:54:43;;;;;;;41.88;21.08;;;;;;;5.60;92.32;95589.63;5024325;28;20053;-64
2022/03/31 00:57:11;;;;;;;41.78;20.83;;;;;;;5.66;92.79;95584.25;5024605;28;20060;-65
2022/03/31 00:59:38;;;;;;;37.47;20.15;;;;;;;5.71;92.03;95595.00;5023917;28;20060;-64
2022/03/31 01:02:05;;;;;;;44.60;20.23;;;;;;;5.70;91.56;95580.81;5024644;28;20448;-66
2022/03/31 01:04:34;;;;;;;38.10;20.05;;;;;;;5.65;91.36;95586.16;5025307;28;20041;-65
2022/03/31 01:07:01;;;;;;;35.28;19.77;;;;;;;5.67;90.91;95577.81;5023018;28;20532;-63
2022/03/31 01:09:28;;;;;;;36.17;19.02;;;;;;;5.62;90.90;95581.31;5024411;28;20436;-65
2022/03/31 01:11:54;;;;;;;37.40;19.42;;;;;;;5.58;91.59;95582.91;5024681;28;20041;-64
2022/03/31 01:14:21;;;;;;;36.33;20.42;;;;;;;5.45;91.64;95574.28;5022557;28;20452;-65
2022/03/31 01:16:48;;;;;;;36.63;19.10;;;;;;;5.44;91.53;95574.53;5022920;28;20617;-64
2022/03/31 01:19:14;;;;;;;36.92;19.48;;;;;;;5.46;91.78;95575.88;5023699;28;20570;-63
2022/03/31 01:21:43;;;;;;;37.38;19.40;;;;;;;5.39;91.59;95569.97;5029760;28;20044;-63
2022/03/31 01:24:14;;;;;;;37.08;19.67;;;;;;;5.44;92.35;95569.16;5026926;28;20122;-64
2022/03/31 01:26:41;;;;;;;37.00;18.45;;;;;;;5.43;91.23;95564.88;5024317;28;20091;-63
2022/03/31 01:29:09;;;;;;;34.10;18.85;;;;;;;5.55;91.62;95570.81;5023989;28;20046;-64
2022/03/31 01:31:40;;;;;;;36.60;18.92;;;;;;;5.59;90.66;95569.22;5008155;28;20412;-65
2022/03/31 01:34:08;;;;;;;33.33;17.60;;;;;;;5.65;91.14;95558.50;5025592;28;20555;-65
2022/03/31 01:36:36;;;;;;;36.15;19.02;;;;;;;5.59;90.17;95566.53;5024884;28;20095;-64
2022/03/31 01:39:04;;;;;;;33.65;17.25;;;;;;;5.58;nan;95567.63;5012125;28;20049;-66
2022/03/31 01:41:31;;;;;;;34.72;17.48;;;;;;;5.54;90.36;95555.78;5016177;28;20053;-63
2022/03/31 01:43:57;;;;;;;35.45;17.48;;;;;;;5.63;90.91;95549.91;5026529;28;20091;-63
2022/03/31 01:46:24;;;;;;;32.80;16.77;;;;;;;5.65;89.29;95553.94;5034722;28;20045;-65
2022/03/31 01:48:52;;;;;;;27.48;16.85;;;;;;;5.63;89.59;95544.53;5037067;28;20053;-64
2022/03/31 01:51:19;;;;;;;32.13;17.27;;;;;;;5.67;89.27;95548.28;5027157;28;20489;-65
2022/03/31 01:53:46;;;;;;;27.80;15.18;;;;;;;5.79;87.63;95545.38;5025094;28;20460;-64
2022/03/31 01:56:13;;;;;;;27.20;15.70;;;;;;;5.61;88.29;95531.38;5034950;28;20049;-64
2022/03/31 01:58:40;;;;;;;27.73;15.38;;;;;;;5.70;87.60;95534.34;5028130;28;20408;-64
2022/03/31 02:01:07;;;;;;;25.73;14.63;;;;;;;5.62;87.10;95532.16;5026057;28;20041;-64
2022/03/31 02:03:34;;;;;;;27.75;15.95;;;;;;;5.57;87.56;95528.41;5027496;28;20053;-64
2022/03/31 02:06:00;;;;;;;20.25;12.75;;;;;;;5.57;86.89;95527.59;5028075;28;20095;-63
2022/03/31 02:08:27;;;;;;;21.50;12.82;;;;;;;5.52;86.01;95523.03;5027944;28;20045;-65
2022/03/31 02:10:53;;;;;;;19.90;12.52;;;;;;;5.50;86.76;95524.38;5027046;28;20045;-62
2022/03/31 02:13:20;;;;;;;19.98;12.05;;;;;;;5.22;87.56;95529.91;5026495;28;20057;-63
2022/03/31 02:15:47;;;;;;;19.98;11.73;;;;;;;5.10;86.41;95526.66;5026238;28;20729;-64
2022/03/31 02:18:13;;;;;;;18.73;11.63;;;;;;;5.04;86.09;95520.44;5028528;28;20429;-62
2022/03/31 02:20:41;;;;;;;20.42;12.15;;;;;;;4.99;86.41;95525.81;5039976;28;20057;-62
2022/03/31 02:23:08;;;;;;;18.52;11.73;;;;;;;5.02;85.45;95515.34;5044719;28;20041;-64
2022/03/31 02:25:36;;;;;;;18.80;11.13;;;;;;;4.90;85.67;95518.25;5040992;28;20029;-65
2022/03/31 02:28:02;;;;;;;19.85;11.18;;;;;;;4.80;86.46;95508.28;5008422;28;20104;-64
2022/03/31 02:30:29;;;;;;;16.73;11.20;;;;;;;4.78;86.60;95505.06;5028926;28;20033;-64
2022/03/31 02:32:58;;;;;;;19.52;11.65;;;;;;;4.87;86.52;95509.94;5028302;28;20045;-64
2022/03/31 02:35:26;;;;;;;18.27;11.40;;;;;;;4.88;85.72;95509.69;5027541;28;20505;-64
2022/03/31 02:37:52;;;;;;;18.52;11.20;;;;;;;4.84;86.56;95505.09;5025876;28;20045;-65
2022/03/31 02:40:19;;;;;;;20.17;12.10;;;;;;;4.73;86.89;95510.41;5023736;28;20049;-64
2022/03/31 02:42:46;;;;;;;18.75;11.60;;;;;;;4.70;86.89;95508.25;5025818;28;20041;-64
2022/03/31 02:45:13;;;;;;;22.23;12.48;;;;;;;4.61;87.36;95501.75;5026533;28;20048;-63
2022/03/31 02:47:40;;;;;;;18.60;12.45;;;;;;;4.54;87.23;95497.44;5026262;28;20095;-65
2022/03/31 02:50:07;;;;;;;19.65;12.45;;;;;;;4.52;87.83;95496.88;5027134;28;20049;-63
2022/03/31 02:55:28;;;;;;;23.42;14.45;;;;;;;4.38;88.99;95485.00;5013182;28;20060;-65
2022/03/31 02:58:00;;;;;;;19.92;12.40;;;;;;;4.36;88.74;95482.59;5027179;28;20049;-64
2022/03/31 03:00:30;;;;;;;22.48;14.18;;;;;;;4.35;88.20;95480.97;5025943;28;20111;-62
2022/03/31 03:02:59;;;;;;;22.33;12.75;;;;;;;4.36;88.25;95479.91;5026844;28;20120;-62
2022/03/31 03:05:25;;;;;;;22.10;13.38;;;;;;;4.31;89.11;95484.44;5043196;28;20091;-64
2022/03/31 03:07:52;;;;;;;21.65;12.98;;;;;;;4.36;88.55;95484.47;5031996;28;20653;-63
2022/03/31 03:10:19;;;;;;;23.65;13.88;;;;;;;4.46;87.70;95478.38;5026266;28;20056;-63
2022/03/31 03:12:47;;;;;;;20.60;12.88;;;;;;;4.47;87.44;95477.28;5025918;28;20116;-64
2022/03/31 03:15:13;;;;;;;21.92;14.50;;;;;;;4.35;88.08;95470.25;5024523;28;20646;-64
2022/03/31 03:17:45;;;;;;;21.05;13.93;;;;;;;4.26;88.50;95466.44;5025123;28;20060;-65
2022/03/31 03:20:14;;;;;;;22.33;13.50;;;;;;;4.21;89.31;95467.25;5024474;28;20045;-64
2022/03/31 03:22:42;;;;;;;23.58;14.82;;;;;;;4.14;89.85;95472.00;5033063;28;20096;-66
2022/03/31 03:25:11;;;;;;;21.75;14.13;;;;;;;4.19;89.89;95465.84;5026561;28;20045;-66
2022/03/31 03:27:39;;;;;;;21.75;13.45;;;;;;;4.25;88.84;95471.00;5025017;28;20046;-64
2022/03/31 03:30:06;;;;;;;20.35;13.30;;;;;;;4.39;88.54;95463.31;5024890;28;20099;-65
2022/03/31 03:32:34;;;;;;;22.45;14.95;;;;;;;4.18;89.27;95464.25;5026054;28;20029;-64
2022/03/31 03:35:01;;;;;;;23.48;14.38;;;;;;;4.19;89.12;95463.19;5025482;28;20041;-64
2022/03/31 03:37:27;;;;;;;24.55;14.55;;;;;;;4.14;89.24;95462.09;5025295;28;20424;-65
2022/03/31 03:39:54;;;;;;;22.45;14.15;;;;;;;4.18;89.59;95473.09;5025640;28;20532;-62
2022/03/31 03:42:21;;;;;;;24.17;14.27;;;;;;;4.13;89.00;95471.19;5025135;28;20460;-65
2022/03/31 03:44:47;;;;;;;23.90;14.57;;;;;;;4.03;88.50;95468.44;5024180;28;20715;-64
2022/03/31 03:47:14;;;;;;;23.48;13.38;;;;;;;4.04;88.57;95472.72;5033722;28;20041;-64
2022/03/31 03:49:41;;;;;;;20.95;13.40;;;;;;;4.06;87.86;95472.47;5021363;28;20107;-65
2022/03/31 03:52:08;;;;;;;24.65;13.85;;;;;;;4.08;87.42;95473.84;5024509;28;20467;-64
2022/03/31 03:54:34;;;;;;;21.17;12.70;;;;;;;4.05;87.32;95477.03;5025415;28;20041;-64
2022/03/31 03:57:01;;;;;;;19.83;12.68;;;;;;;4.03;87.37;95469.25;5025591;28;20041;-67
2022/03/31 03:59:27;;;;;;;20.98;13.27;;;;;;;4.07;87.00;95479.44;5025606;28;20056;-63
2022/03/31 04:01:54;;;;;;;21.63;12.80;;;;;;;4.01;86.52;95474.06;5024543;28;20041;-66
2022/03/31 04:04:21;;;;;;;20.20;11.98;;;;;;;3.91;87.66;95474.00;5026385;28;20052;-64
2022/03/31 04:06:49;;;;;;;24.30;13.75;;;;;;;3.85;87.72;95470.47;5024540;28;20034;-64
2022/03/31 04:09:16;;;;;;;23.75;13.50;;;;;;;3.82;87.13;95475.50;5025038;28;20041;-64
2022/03/31 04:11:42;;;;;;;23.63;13.38;;;;;;;3.75;87.12;95468.50;5032042;28;20045;-67
2022/03/31 04:14:09;;;;;;;22.67;13.10;;;;;;;3.70;87.52;95468.47;5024835;28;20048;-65
2022/03/31 04:16:36;;;;;;;24.65;12.93;;;;;;;3.64;87.93;95469.47;5024178;28;20053;-65
2022/03/31 04:19:05;;;;;;;21.83;13.60;;;;;;;3.67;87.79;95470.84;5024765;28;20525;-67
2022/03/31 04:21:31;;;;;;;22.42;11.98;;;;;;;3.65;87.80;95468.44;5012682;28;20412;-67
2022/03/31 04:23:58;;;;;;;20.05;13.07;;;;;;;3.64;87.66;95472.16;5032986;28;20718;-65
2022/03/31 04:26:24;;;;;;;24.80;14.70;;;;;;;3.63;88.21;95470.53;5024918;28;20559;-64
2022/03/31 04:28:51;;;;;;;23.60;14.32;;;;;;;3.59;88.27;95464.09;5024799;28;20044;-66
2022/03/31 04:31:17;;;;;;;24.85;14.95;;;;;;;3.54;87.94;95466.72;5025513;28;20041;-67
2022/03/31 04:33:44;;;;;;;24.23;15.65;;;;;;;3.48;89.86;95461.31;5022082;28;20168;-69
2022/03/31 04:36:11;;;;;;;26.65;16.20;;;;;;;3.36;90.38;95456.13;5031370;28;20178;-63
2022/03/31 04:38:38;;;;;;;24.95;15.40;;;;;;;3.16;90.99;95447.91;5026000;28;20076;-63
2022/03/31 04:41:04;;;;;;;26.75;14.93;;;;;;;3.10;91.66;95452.41;5025012;28;20103;-64
2022/03/31 04:43:31;;;;;;;26.50;15.32;;;;;;;3.17;92.13;95452.19;5023677;28;20045;-64
2022/03/31 04:45:58;;;;;;;28.67;16.23;;;;;;;3.19;91.02;95445.53;5024285;28;20041;-64
2022/03/31 04:48:25;;;;;;;26.13;15.02;;;;;;;3.26;89.88;95448.00;5024543;28;20046;-64
2022/03/31 04:50:51;;;;;;;30.30;16.85;;;;;;;3.29;91.92;95446.69;5023738;28;20053;-64
2022/03/31 04:53:18;;;;;;;28.58;14.88;;;;;;;3.28;90.99;95447.75;5024078;28;20506;-63
2022/03/31 04:55:44;;;;;;;29.33;16.02;;;;;;;3.15;92.03;95441.75;5023274;28;20492;-64
2022/03/31 04:58:11;;;;;;;29.17;16.02;;;;;;;3.14;91.86;95452.69;5023697;28;20129;-63
2022/03/31 05:00:38;;;;;;;26.85;15.20;;;;;;;3.18;91.58;95438.56;5023498;28;20045;-65
2022/03/31 05:03:05;;;;;;;26.85;16.35;;;;;;;3.19;91.76;95439.38;5017887;28;20045;-66
2022/03/31 05:05:32;;;;;;;29.05;15.75;;;;;;;3.04;92.44;95438.16;5021206;28;20073;-66
2022/03/31 05:07:59;;;;;;;31.25;17.50;;;;;;;3.04;92.67;95440.84;5024419;28;20491;-67
2022/03/31 05:10:25;;;;;;;27.23;15.10;;;;;;;3.10;92.75;95437.13;5021794;28;20045;-65
2022/03/31 05:12:52;;;;;;;30.95;17.08;;;;;;;3.21;91.42;95438.06;5021857;28;20037;-63
2022/03/31 05:15:18;;;;;;;29.95;15.68;;;;;;;3.30;91.04;95434.91;5027537;28;20056;-64
2022/03/31 05:17:45;;;;;;;25.58;15.07;;;;;;;3.21;90.75;95434.59;5029564;28;20054;-64
2022/03/31 05:20:12;;;;;;;27.92;15.75;;;;;;;3.10;91.32;95433.69;5029921;28;20520;-63
2022/03/31 05:22:40;;;;;;;28.55;15.88;;;;;;;3.23;91.02;95437.81;5031662;28;20041;-65
2022/03/31 05:25:08;;;;;;;23.92;14.77;;;;;;;3.14;90.54;95442.00;5040327;28;20045;-66
2022/03/31 05:27:47;;;;;;;28.15;16.38;;;;;;;3.08;91.21;95449.97;5024530;28;20041;-65
2022/03/31 05:30:16;;;;;;;30.63;15.45;;;;;;;3.05;91.81;95449.66;5026623;28;20045;-65
2022/03/31 05:32:42;;;;;;;27.05;15.55;;;;;;;3.19;90.86;95450.06;5028406;28;20232;-64
2022/03/31 05:35:11;;;;;;;28.55;15.93;;;;;;;3.16;91.70;95459.41;5045821;28;20049;-66
2022/03/31 05:37:38;;;;;;;28.35;16.13;;;;;;;3.16;91.68;95448.72;5031455;28;20152;-65
2022/03/31 05:40:07;;;;;;;28.35;16.30;;;;;;;3.11;91.55;95440.63;5036261;28;20061;-65
2022/03/31 05:42:34;;;;;;;32.67;17.70;;;;;;;3.06;91.57;95438.69;5024501;28;20049;-65
2022/03/31 05:45:03;;;;;;;31.08;16.60;;;;;;;3.18;90.60;95438.56;5026135;28;20037;-67
2022/03/31 05:47:30;;;;;;;29.23;16.33;;;;;;;3.20;90.08;95433.78;5028090;28;20045;-65
2022/03/31 05:49:57;;;;;;;26.05;15.10;;;;;;;3.29;90.02;95433.31;5036017;28;20045;-66
2022/03/31 05:52:24;;;;;;;27.77;15.13;;;;;;;3.34;89.90;95436.03;5035766;28;20237;-66
2022/03/31 05:54:51;;;;;;;29.38;17.05;;;;;;;3.33;90.26;95442.44;5025132;28;20497;-65
2022/03/31 05:57:17;;;;;;;27.80;15.82;;;;;;;3.24;89.91;95442.91;5038744;28;20041;-65
2022/03/31 05:59:44;;;;;;;26.50;15.35;;;;;;;3.40;89.66;95442.25;5026252;28;20513;-65
2022/03/31 06:02:11;;;;;;;27.45;15.10;;;;;;;3.39;89.60;95438.75;5028280;28;20046;-66
2022/03/31 06:04:57;;;;;;;29.42;16.38;;;;;;;3.21;90.33;95432.69;5027416;28;20042;-65
2022/03/31 06:07:24;;;;;;;28.30;15.80;;;;;;;3.12;90.86;95437.72;5028148;28;20046;-65
2022/03/31 06:09:51;;;;;;;27.60;15.18;;;;;;;3.27;90.36;95432.78;5023830;28;20106;-65
2022/03/31 06:12:17;;;;;;;29.55;17.13;;;;;;;3.25;90.32;95435.69;5023431;28;20123;-65
2022/03/31 06:14:44;;;;;;;28.55;16.33;;;;;;;3.27;91.00;95432.78;5024677;28;20045;-67
2022/03/31 06:17:12;;;;;;;28.83;15.85;;;;;;;3.46;90.25;95436.69;5026235;28;20042;-65
2022/03/31 06:19:39;;;;;;;26.77;15.45;;;;;;;3.51;89.73;95435.94;5027313;28;20115;-65
2022/03/31 06:22:06;;;;;;;29.10;15.57;;;;;;;3.48;89.44;95433.75;5032941;28;20037;-65
2022/03/31 06:24:32;;;;;;;28.35;15.43;;;;;;;3.60;89.37;95438.94;5025877;28;20556;-64
2022/03/31 06:27:00;;;;;;;28.80;16.92;;;;;;;3.45;89.35;95428.91;5027550;28;20484;-66
2022/03/31 06:29:27;;;;;;;27.23;15.40;;;;;;;3.56;89.36;95432.47;5027188;28;20719;-65
2022/03/31 06:31:54;;;;;;;29.95;15.68;;;;;;;3.53;89.31;95433.00;5027056;28;20057;-64
2022/03/31 06:34:22;;;;;;;29.23;15.32;;;;;;;3.57;89.55;95434.09;5027738;28;20045;-63
2022/03/31 06:36:49;;;;;;;30.42;16.25;;;;;;;3.64;89.73;95434.69;5027336;28;20099;-65
2022/03/31 06:39:16;;;;;;;27.55;16.17;;;;;;;3.44;89.28;95436.13;5027501;28;20046;-65
2022/03/31 06:41:43;;;;;;;30.13;14.75;;;;;;;3.42;90.07;95438.25;5026604;28;20045;-66
2022/03/31 06:44:13;;;;;;;27.73;15.80;;;;;;;3.40;90.40;95439.56;5027581;28;20076;-65
2022/03/31 06:46:40;;;;;;;30.63;15.32;;;;;;;3.51;89.59;95435.94;5026786;28;20594;-64
2022/03/31 06:49:08;;;;;;;26.50;15.45;;;;;;;3.58;88.88;95428.47;5025347;28;20049;-65
2022/03/31 06:51:35;;;;;;;29.80;15.10;;;;;;;3.75;88.88;95431.03;5026565;28;20041;-64
2022/03/31 06:54:03;;;;;;;26.98;15.75;;;;;;;3.82;88.28;95424.63;5030192;28;20221;-64
2022/03/31 06:56:31;;;;;;;26.52;13.80;;;;;;;3.72;88.94;95425.41;5027678;28;20063;-65
2022/03/31 06:58:59;;;;;;;29.05;15.13;;;;;;;3.75;88.35;95431.03;5030284;28;20476;-64
2022/03/31 07:01:25;;;;;;;24.80;13.63;;;;;;;3.86;88.59;95428.41;5020223;28;20053;-58
2022/03/31 07:03:52;;;;;;;27.45;18.40;;;;;;;3.76;88.16;95429.16;5006872;28;20057;-58
2022/03/31 07:06:20;;;;;;;26.00;14.65;;;;;;;3.85;88.47;95432.16;5020450;28;20045;-57
2022/03/31 07:08:47;;;;;;;22.80;14.68;;;;;;;3.86;87.83;95428.41;5023583;28;20049;-61
2022/03/31 07:11:14;;;;;;;24.58;16.45;;;;;;;3.88;87.30;95423.63;5022979;28;20699;-59
2022/03/31 07:13:43;;;;;;;26.75;15.98;;;;;;;3.81;87.97;95426.53;5032501;28;20029;-60
2022/03/31 07:16:09;;;;;;;25.65;14.80;;;;;;;3.92;87.81;95419.38;5019921;28;20103;-55
2022/03/31 07:18:36;;;;;;;27.40;15.93;;;;;;;4.01;87.74;95422.34;5036386;28;20040;-58
2022/03/31 07:21:03;;;;;;;25.10;13.95;;;;;;;4.07;87.15;95425.88;5024570;28;20049;-56
2022/03/31 07:23:29;;;;;;;23.13;14.18;;;;;;;4.09;86.74;95426.44;5022967;28;20103;-60
2022/03/31 07:25:59;;;;;;;26.60;14.65;;;;;;;4.09;87.08;95421.88;5012014;28;20398;-58
2022/03/31 07:28:26;;;;;;;26.42;14.75;;;;;;;4.07;86.59;95415.16;5020195;28;20046;-56
2022/03/31 07:30:53;;;;;;;25.67;14.98;;;;;;;4.02;87.20;95424.78;5019204;28;20547;-58
2022/03/31 07:33:21;;;;;;;26.13;15.10;;;;;;;3.93;86.85;95423.66;5024115;28;20045;-57
2022/03/31 07:35:48;;;;;;;26.40;14.50;;;;;;;3.99;87.68;95422.63;5031302;28;20043;-54
2022/03/31 07:38:16;;;;;;;23.05;12.75;;;;;;;4.03;86.63;95421.03;5022226;28;20061;-68
2022/03/31 07:40:43;;;;;;;24.15;13.80;;;;;;;4.13;86.60;95422.19;5017596;28;20045;-66
2022/03/31 07:43:10;;;;;;;22.35;14.65;;;;;;;4.22;86.66;95422.50;5027705;28;20057;-66
2022/03/31 07:45:39;;;;;;;23.45;13.48;;;;;;;4.31;86.23;95420.13;5019856;28;20529;-68
2022/03/31 07:48:08;;;;;;;21.13;12.55;;;;;;;4.51;84.89;95416.75;5027210;28;20052;-63
2022/03/31 07:50:37;;;;;;;20.60;13.15;;;;;;;4.65;83.15;95409.03;5036196;28;20114;-63
2022/03/31 07:53:03;;;;;;;21.52;12.93;;;;;;;4.76;83.29;95409.88;5012980;28;20116;-65
2022/03/31 07:55:30;;;;;;;21.77;12.15;;;;;;;4.82;83.09;95415.00;5024195;28;20139;-64
2022/03/31 07:57:57;;;;;;;21.02;13.18;;;;;;;4.89;82.34;95411.25;5034810;28;20040;-63
2022/03/31 08:00:23;;;;;;;23.17;13.73;;;;;;;5.06;82.29;95406.44;5036660;28;20036;-66
2022/03/31 08:02:51;;;;;;;22.23;12.60;;;;;;;5.31;81.49;95404.88;5031290;28;20041;-65
2022/03/31 08:05:23;;;;;;;23.88;13.02;;;;;;;5.42;80.52;95403.00;5038614;28;20099;-68
2022/03/31 08:07:51;;;;;;;18.05;11.88;;;;;;;5.51;80.03;95400.63;5020571;28;20057;-68
2022/03/31 08:10:19;;;;;;;21.85;11.93;;;;;;;5.39;81.13;95406.25;5028817;28;20052;-68
2022/03/31 08:12:46;;;;;;;24.30;12.95;;;;;;;5.44;81.15;95408.13;5030451;28;20077;-68
2022/03/31 08:15:16;;;;;;;18.90;11.32;;;;;;;5.55;79.02;95400.88;5019032;28;20056;-66
2022/03/31 08:17:45;;;;;;;22.88;12.57;;;;;;;5.63;79.90;95396.88;5023029;28;20041;-68
2022/03/31 08:20:13;;;;;;;21.88;13.15;;;;;;;5.57;79.41;95393.38;5020475;28;20730;-67
2022/03/31 08:22:40;;;;;;;18.20;11.75;;;;;;;5.90;78.08;95393.06;5024633;28;20053;-67
2022/03/31 08:25:09;;;;;;;20.15;12.50;;;;;;;6.36;76.55;95389.50;5032222;28;20056;-68
2022/03/31 08:27:37;;;;;;;19.58;11.88;;;;;;;6.39;76.32;95388.97;5035288;28;20424;-67
2022/03/31 08:30:08;;;;;;;18.83;11.70;;;;;;;6.45;75.72;95387.06;5032493;28;20052;-68
2022/03/31 08:32:36;;;;;;;18.15;12.50;;;;;;;6.27;76.60;95386.59;5033226;28;20569;-67
2022/03/31 08:35:04;;;;;;;19.13;11.38;;;;;;;6.57;74.51;95386.75;5043212;28;20045;-66
2022/03/31 08:37:35;;;;;;;18.52;11.55;;;;;;;6.39;75.69;95383.59;5024229;28;20041;-67
2022/03/31 08:40:03;;;;;;;22.40;12.25;;;;;;;6.41;75.96;95396.75;5023683;28;20064;-66
2022/03/31 08:42:30;;;;;;;20.25;12.05;;;;;;;6.58;75.70;95397.22;5020290;28;20123;-67
2022/03/31 08:44:58;;;;;;;22.73;13.15;;;;;;;6.82;74.92;95393.88;5025241;28;20029;-68
2022/03/31 08:47:26;;;;;;;18.05;11.43;;;;;;;6.76;74.16;95386.94;5023112;28;20420;-68
2022/03/31 08:50:13;;;;;;;20.63;11.90;;;;;;;6.83;74.58;95390.13;5023089;28;20124;-69
2022/03/31 08:52:41;;;;;;;19.48;12.45;;;;;;;6.66;75.62;95382.41;5027562;28;20053;-67
2022/03/31 08:55:09;;;;;;;21.05;13.38;;;;;;;6.54;75.08;95387.28;5034512;28;20112;-68
2022/03/31 08:57:43;;;;;;;18.50;12.00;;;;;;;6.74;74.67;95383.69;5030966;28;20037;-68
2022/03/31 09:00:12;;;;;;;24.55;12.68;;;;;;;6.55;75.39;95381.63;5030266;28;20045;-66
2022/03/31 09:02:39;;;;;;;21.20;12.52;;;;;;;6.82;74.93;95380.44;5029812;28;20436;-67
2022/03/31 09:05:11;;;;;;;20.92;12.18;;;;;;;7.11;73.66;95381.66;5025109;28;20045;-66
2022/03/31 09:07:54;;;;;;;21.90;13.25;;;;;;;6.52;75.41;95379.50;5024513;28;20049;-66
2022/03/31 09:10:34;;;;;;;18.88;11.57;;;;;;;6.67;75.46;95383.22;5023483;28;20054;-66
2022/03/31 09:13:03;;;;;;;20.20;12.18;;;;;;;6.48;76.95;95381.94;5023402;28;20049;-67
2022/03/31 09:15:32;;;;;;;21.98;13.30;;;;;;;6.35;76.93;95377.16;5023960;28;20069;-67
2022/03/31 09:18:00;;;;;;;22.77;13.00;;;;;;;6.51;77.26;95375.19;5023754;28;20562;-67
2022/03/31 09:20:48;;;;;;;20.23;13.38;;;;;;;6.24;77.57;95373.69;5023046;28;20055;-67
2022/03/31 09:23:21;;;;;;;21.80;13.70;;;;;;;6.40;76.92;95373.63;5027563;28;20049;-64
2022/03/31 09:25:51;;;;;;;22.90;13.70;;;;;;;6.66;76.03;95366.25;5024136;28;20456;-66
2022/03/31 09:28:20;;;;;;;21.50;13.93;;;;;;;6.47;76.76;95371.44;5017622;28;20037;-67
2022/03/31 09:30:53;;;;;;;22.08;14.55;;;;;;;6.49;77.76;95369.31;5020057;28;20057;-67
2022/03/31 09:33:29;;;;;;;22.88;14.52;;;;;;;6.52;76.68;95362.56;5020894;28;20057;-66
2022/03/31 09:36:06;;;;;;;22.35;14.60;;;;;;;6.76;76.42;95362.72;5016551;28;20041;-66
2022/03/31 09:38:38;;;;;;;19.70;12.80;;;;;;;6.80;75.91;95365.66;5020512;28;20060;-66
2022/03/31 09:41:26;;;;;;;20.08;13.00;;;;;;;7.05;74.93;95366.59;5020744;28;20107;-66
2022/03/31 09:43:55;;;;;;;20.58;12.35;;;;;;;6.66;76.15;95366.25;5020690;28;20053;-66
2022/03/31 09:46:28;;;;;;;21.52;13.13;;;;;;;6.92;74.49;95357.28;5022248;28;20528;-66
2022/03/31 09:49:20;;;;;;;20.38;12.73;;;;;;;6.82;75.15;95353.53;5021181;28;20095;-66
2022/03/31 09:51:48;;;;;;;18.08;11.70;;;;;;;7.19;73.88;95350.63;5019405;28;20754;-66
2022/03/31 09:54:17;;;;;;;21.50;13.20;;;;;;;7.32;73.12;95349.19;5040626;28;20540;-66
2022/03/31 09:56:44;;;;;;;20.65;14.00;;;;;;;6.74;75.63;95356.81;5036168;28;20045;-65
2022/03/31 09:59:13;;;;;;;22.85;15.20;;;;;;;6.85;75.86;95361.06;5020021;28;20054;-67
2022/03/31 10:01:51;;;;;;;26.15;15.25;;;;;;;6.99;75.67;95363.13;5024749;28;20095;-67
2022/03/31 10:04:19;;;;;;;21.98;13.55;;;;;;;7.23;74.37;95351.69;5021692;28;20045;-67
2022/03/31 10:06:53;;;;;;;18.95;12.25;;;;;;;7.17;74.02;95353.59;5020731;28;20766;-65
2022/03/31 10:09:20;;;;;;;20.45;11.93;;;;;;;7.16;74.11;95354.69;5026659;28;20049;-66
2022/03/31 10:11:50;;;;;;;20.55;12.55;;;;;;;6.99;75.24;95353.19;5035573;28;20049;-67
2022/03/31 10:14:26;;;;;;;21.20;13.05;;;;;;;6.98;74.92;95356.97;5025068;28;20049;-66
2022/03/31 10:16:57;;;;;;;21.52;13.60;;;;;;;7.00;75.33;95360.16;5028921;28;20113;-65
2022/03/31 10:19:41;;;;;;;21.30;12.70;;;;;;;6.99;74.67;95352.38;5033186;28;20049;-66
2022/03/31 10:25:11;;;;;;;20.30;12.50;;;;;;;6.94;74.60;95349.72;5024280;28;20412;-68
2022/03/31 10:27:47;;;;;;;19.90;13.25;;;;;;;6.91;75.82;95348.38;5022942;28;20038;-69
2022/03/31 10:30:16;;;;;;;21.15;13.02;;;;;;;7.16;74.12;95341.22;5033559;28;20041;-70
2022/03/31 10:32:50;;;;;;;21.70;12.88;;;;;;;7.44;73.42;95349.63;5024010;28;20052;-66
2022/03/31 10:35:26;;;;;;;18.88;12.25;;;;;;;7.73;72.57;95346.16;5023212;28;20045;-67
2022/03/31 10:37:54;;;;;;;20.73;12.98;;;;;;;7.64;72.74;95342.47;5024094;28;20045;-68
2022/03/31 10:40:32;;;;;;;21.65;13.85;;;;;;;7.14;74.45;95349.59;5024285;28;20486;-68
2022/03/31 10:42:59;;;;;;;22.38;13.52;;;;;;;7.03;75.26;95329.19;5024498;28;20045;-69
2022/03/31 10:45:36;;;;;;;20.05;13.32;;;;;;;7.18;74.76;95335.56;5031570;28;20412;-66
2022/03/31 10:48:14;;;;;;;25.50;15.63;;;;;;;6.99;75.31;95323.59;5029566;28;20107;-68
2022/03/31 10:50:41;;;;;;;24.27;13.63;;;;;;;7.12;75.21;95327.50;5030242;28;20559;-68
2022/03/31 10:53:07;;;;;;;24.90;17.27;;;;;;;7.02;75.21;95327.59;5025588;28;20045;-67
2022/03/31 10:55:37;;;;;;;21.52;14.32;;;;;;;7.14;73.93;95332.63;5025164;28;20601;-70
2022/03/31 10:58:05;;;;;;;23.77;13.30;;;;;;;7.44;73.41;95336.16;5025904;28;20041;-71
2022/03/31 11:00:33;;;;;;;20.63;13.30;;;;;;;7.43;73.54;95331.88;5031259;28;20049;-66
2022/03/31 11:02:59;;;;;;;25.38;14.30;;;;;;;7.12;74.31;95322.13;5024948;28;20104;-68
2022/03/31 11:05:47;;;;;;;21.65;12.52;;;;;;;7.32;73.65;95336.53;5025881;28;20045;-63
2022/03/31 11:08:18;;;;;;;22.33;14.10;;;;;;;7.25;74.20;95328.78;5025997;28;20038;-65
2022/03/31 11:10:49;;;;;;;23.25;13.50;;;;;;;7.35;74.33;95324.41;5021623;28;20083;-68
2022/03/31 11:13:18;;;;;;;23.05;15.35;;;;;;;7.33;73.87;95330.06;5018095;28;20045;-66
2022/03/31 11:15:54;;;;;;;23.80;14.60;;;;;;;6.87;75.59;95331.19;5034200;28;20464;-67
2022/03/31 11:18:21;;;;;;;23.58;13.75;;;;;;;6.99;74.87;95328.97;5025274;28;20045;-65
2022/03/31 11:20:54;;;;;;;20.85;13.30;;;;;;;7.07;75.65;95321.38;5025611;28;20048;-68
2022/03/31 11:23:20;;;;;;;22.15;13.45;;;;;;;7.15;74.62;95320.78;5043713;28;20041;-66
2022/03/31 11:25:47;;;;;;;21.98;14.57;;;;;;;7.18;74.71;95314.03;5028155;28;20052;-69
2022/03/31 11:28:14;;;;;;;23.33;14.75;;;;;;;7.05;76.24;95315.47;5045242;28;20052;-68
2022/03/31 11:30:43;;;;;;;25.83;15.13;;;;;;;7.30;74.33;95309.09;5028619;28;20238;-67
2022/03/31 11:33:11;;;;;;;23.50;14.88;;;;;;;7.47;73.77;95315.94;5024801;28;20125;-67
2022/03/31 11:35:38;;;;;;;22.35;13.25;;;;;;;7.24;74.12;95310.22;5024395;28;20053;-67